Time;durP1;ratioP1;P1;durP2;ratioP2;P2;SDS_P1;SDS_P2;PMS_P1;PMS_P2;Temp;Humidity;BMP_temperature;BMP_pressure;BME280_temperature;BME280_humidity;BME280_pressure;Samples;Min_cycle;Max_cycle;Signal;HPM_P1;HPM_P2
2023/03/23 00:02:28;;;;;;;34.83;20.83;;;12.20;97.40;;;;;;4997638;28;20115;-76
2023/03/23 00:04:55;;;;;;;30.92;18.58;;;12.00;97.60;;;;;;4994871;28;20034;-75
2023/03/23 00:07:22;;;;;;;31.17;19.08;;;12.10;97.60;;;;;;4991157;28;20034;-76
2023/03/23 00:09:53;;;;;;;34.22;18.20;;;12.20;97.50;;;;;;5002917;28;20392;-75
2023/03/23 00:12:33;;;;;;;36.08;20.17;;;12.20;97.50;;;;;;4998265;28;20029;-75
2023/03/23 00:15:01;;;;;;;33.85;20.58;;;12.20;97.50;;;;;;4997099;28;20105;-74
2023/03/23 00:17:28;;;;;;;38.45;21.27;;;12.20;97.40;;;;;;5000259;28;20855;-75
2023/03/23 00:19:54;;;;;;;33.30;20.25;;;12.20;97.60;;;;;;5007188;28;20554;-75
2023/03/23 00:22:21;;;;;;;33.05;20.98;;;12.10;97.60;;;;;;5011675;28;20034;-75
2023/03/23 00:24:50;;;;;;;32.22;20.55;;;12.10;97.70;;;;;;5011478;28;20029;-75
2023/03/23 00:27:16;;;;;;;32.67;19.42;;;12.00;97.90;;;;;;5014827;28;20455;-75
2023/03/23 00:29:44;;;;;;;32.53;20.38;;;11.90;98.00;;;;;;5017856;28;20479;-74
2023/03/23 00:32:13;;;;;;;41.22;20.60;;;11.90;98.10;;;;;;5009781;28;20030;-75
2023/03/23 00:34:41;;;;;;;34.45;20.52;;;11.90;98.20;;;;;;5002240;28;20030;-75
2023/03/23 00:37:07;;;;;;;34.22;19.42;;;11.90;98.20;;;;;;5009981;28;20022;-74
2023/03/23 00:39:33;;;;;;;34.67;20.58;;;11.90;98.20;;;;;;5013779;28;20154;-75
2023/03/23 00:42:01;;;;;;;32.10;19.50;;;11.90;98.30;;;;;;5006928;28;20030;-74
2023/03/23 00:44:30;;;;;;;35.63;21.20;;;11.80;98.40;;;;;;4999015;28;20052;-75
2023/03/23 00:46:56;;;;;;;39.08;21.85;;;11.80;98.60;;;;;;5020861;28;20395;-75
2023/03/23 00:49:26;;;;;;;32.80;18.98;;;11.90;98.50;;;;;;4993751;28;20026;-74
2023/03/23 00:51:54;;;;;;;33.17;20.38;;;12.00;98.20;;;;;;5024637;28;20022;-75
2023/03/23 00:54:21;;;;;;;32.97;21.00;;;12.20;98.10;;;;;;5015075;28;20064;-75
2023/03/23 00:56:47;;;;;;;37.83;22.20;;;12.00;98.10;;;;;;4998279;28;20030;-75
2023/03/23 00:59:13;;;;;;;33.25;20.80;;;11.80;98.50;;;;;;5003487;28;20061;-75
2023/03/23 01:01:39;;;;;;;36.67;20.50;;;11.70;98.80;;;;;;5005863;28;20053;-74
2023/03/23 01:04:06;;;;;;;37.00;22.20;;;11.80;98.60;;;;;;5015481;28;20026;-75
2023/03/23 01:06:35;;;;;;;35.25;20.52;;;11.70;98.80;;;;;;5010081;28;20033;-74
2023/03/23 01:09:03;;;;;;;37.92;21.77;;;11.80;98.70;;;;;;4998314;28;20415;-74
2023/03/23 01:11:29;;;;;;;37.90;22.25;;;12.00;98.70;;;;;;5015547;28;20048;-75
2023/03/23 01:13:54;;;;;;;31.48;20.80;;;12.10;98.30;;;;;;5011755;28;20361;-74
2023/03/23 01:16:20;;;;;;;33.10;20.25;;;11.90;98.40;;;;;;5003939;28;20037;-74
2023/03/23 01:18:46;;;;;;;37.05;21.95;;;11.70;98.80;;;;;;5008104;28;20480;-74
2023/03/23 01:21:15;;;;;;;31.95;19.13;;;11.80;98.90;;;;;;4999606;28;20096;-74
2023/03/23 01:23:41;;;;;;;34.72;20.92;;;11.70;99.00;;;;;;4992091;28;20033;-74
2023/03/23 01:26:13;;;;;;;37.70;21.70;;;11.70;99.10;;;;;;5001793;28;20018;-75
2023/03/23 01:28:39;;;;;;;39.78;21.67;;;11.70;99.20;;;;;;5011453;28;20085;-74
2023/03/23 01:31:07;;;;;;;37.78;22.10;;;11.70;99.20;;;;;;5015343;28;20038;-74
2023/03/23 01:33:34;;;;;;;42.13;23.52;;;11.60;99.10;;;;;;5022150;28;20088;-75
2023/03/23 01:36:11;;;;;;;44.15;20.30;;;11.60;99.20;;;;;;4998943;28;20426;-74
2023/03/23 01:38:36;;;;;;;34.35;22.08;;;11.60;99.20;;;;;;5023383;28;20033;-74
2023/03/23 01:41:03;;;;;;;36.58;21.92;;;11.70;99.00;;;;;;5005359;28;20038;-74
2023/03/23 01:43:29;;;;;;;35.35;22.15;;;11.80;99.00;;;;;;5014770;28;20013;-75
2023/03/23 01:45:55;;;;;;;38.22;20.63;;;11.70;99.00;;;;;;5009781;28;20025;-74
2023/03/23 01:48:26;;;;;;;34.20;20.83;;;11.60;99.30;;;;;;5004212;28;20026;-75
2023/03/23 01:50:55;;;;;;;32.00;19.17;;;11.50;99.50;;;;;;5006603;28;20175;-74
2023/03/23 01:53:24;;;;;;;31.55;19.67;;;11.40;99.50;;;;;;5016687;28;20053;-74
2023/03/23 01:55:52;;;;;;;35.25;21.05;;;11.40;99.60;;;;;;5013389;28;20017;-74
2023/03/23 01:58:26;;;;;;;35.80;21.70;;;11.40;99.70;;;;;;5010624;28;20026;-74
2023/03/23 02:00:58;;;;;;;34.67;21.60;;;11.50;99.80;;;;;;5000076;28;20038;-74
2023/03/23 02:03:25;;;;;;;40.65;24.55;;;11.60;99.60;;;;;;5005297;28;20115;-74
2023/03/23 02:05:51;;;;;;;36.25;21.13;;;11.70;99.40;;;;;;4997404;28;20017;-74
2023/03/23 02:08:19;;;;;;;34.47;20.58;;;11.70;99.10;;;;;;5023134;28;20033;-74
2023/03/23 02:10:45;;;;;;;33.50;20.98;;;11.50;99.30;;;;;;5018704;28;20025;-74
2023/03/23 02:13:12;;;;;;;34.80;20.80;;;11.30;99.60;;;;;;5006266;28;20354;-74
2023/03/23 02:16:02;;;;;;;36.38;23.02;;;11.10;99.90;;;;;;4998919;28;20030;-74
2023/03/23 02:19:00;;;;;;;37.13;21.92;;;11.10;99.90;;;;;;5003962;28;20037;-74
2023/03/23 02:21:44;;;;;;;40.47;20.83;;;11.10;99.90;;;;;;5003884;28;20046;-74
2023/03/23 02:24:21;;;;;;;38.78;22.90;;;11.10;99.90;;;;;;5017813;28;20475;-74
2023/03/23 02:26:56;;;;;;;34.53;20.50;;;11.20;99.90;;;;;;5016593;28;20030;-74
2023/03/23 02:29:22;;;;;;;39.60;22.05;;;11.30;99.90;;;;;;5007298;28;20120;-74
2023/03/23 02:32:17;;;;;;;34.63;20.85;;;11.50;99.70;;;;;;5003334;28;20068;-74
2023/03/23 02:34:52;;;;;;;32.83;20.77;;;11.60;99.90;;;;;;5004859;28;20042;-74
2023/03/23 02:37:28;;;;;;;34.30;20.02;;;11.40;99.70;;;;;;5000917;28;20078;-74
2023/03/23 02:40:11;;;;;;;36.55;21.90;;;11.30;99.70;;;;;;5016541;28;20025;-74
2023/03/23 02:42:39;;;;;;;35.50;23.05;;;11.30;99.90;;;;;;5011619;28;20125;-74
2023/03/23 02:45:08;;;;;;;36.28;21.38;;;11.50;99.90;;;;;;5005458;28;20074;-74
2023/03/23 02:47:37;;;;;;;34.33;21.88;;;11.50;99.70;;;;;;5008626;28;20030;-74
2023/03/23 02:50:04;;;;;;;37.70;20.60;;;11.20;99.90;;;;;;4992353;28;20064;-74
2023/03/23 02:52:32;;;;;;;36.53;22.25;;;11.10;99.90;;;;;;5007001;28;20022;-74
2023/03/23 02:54:59;;;;;;;37.92;22.17;;;11.10;99.90;;;;;;5020156;28;20033;-74
2023/03/23 02:57:27;;;;;;;37.45;22.67;;;11.00;99.90;;;;;;5022095;28;20057;-74
2023/03/23 02:59:54;;;;;;;40.55;23.33;;;11.00;99.90;;;;;;5007248;28;20030;-74
2023/03/23 03:02:28;;;;;;;35.08;22.52;;;11.00;99.90;;;;;;5015499;28;20535;-74
2023/03/23 03:05:00;;;;;;;35.95;21.90;;;11.00;99.90;;;;;;5012499;28;20031;-74
2023/03/23 03:07:45;;;;;;;32.70;20.20;;;11.00;99.90;;;;;;5008115;28;20041;-74
2023/03/23 03:10:23;;;;;;;34.92;22.05;;;11.00;99.90;;;;;;5007616;28;20022;-74
2023/03/23 03:13:07;;;;;;;37.83;22.75;;;11.00;99.90;;;;;;5015306;28;20112;-74
2023/03/23 03:15:41;;;;;;;38.13;22.25;;;11.10;99.90;;;;;;5007392;28;20114;-74
2023/03/23 03:18:29;;;;;;;38.78;22.48;;;11.40;99.90;;;;;;5014914;28;20041;-74
2023/03/23 03:21:01;;;;;;;37.88;22.48;;;11.50;99.90;;;;;;5019765;28;20042;-74
2023/03/23 03:23:28;;;;;;;38.67;23.45;;;11.40;99.90;;;;;;4994692;28;20030;-74
2023/03/23 03:25:57;;;;;;;35.17;22.33;;;11.60;99.90;;;;;;5014819;28;20446;-74
2023/03/23 03:28:26;;;;;;;36.13;21.90;;;11.50;99.90;;;;;;5002143;28;20034;-74
2023/03/23 03:31:00;;;;;;;38.17;23.27;;;11.60;99.90;;;;;;5006775;28;20029;-74
2023/03/23 03:33:27;;;;;;;36.67;21.55;;;11.40;99.90;;;;;;5010826;28;20023;-74
2023/03/23 03:35:59;;;;;;;35.30;20.58;;;11.40;99.90;;;;;;5023500;28;20475;-73
2023/03/23 03:38:26;;;;;;;35.45;19.95;;;11.30;99.90;;;;;;5013826;28;20033;-74
2023/03/23 03:40:52;;;;;;;33.58;21.13;;;10.90;99.90;;;;;;4992797;28;20045;-74
2023/03/23 03:43:18;;;;;;;37.65;19.95;;;10.80;99.90;;;;;;5002910;28;20049;-74
2023/03/23 03:45:44;;;;;;;34.15;21.60;;;10.80;99.90;;;;;;4998148;28;20499;-74
2023/03/23 03:48:11;;;;;;;39.55;23.65;;;11.00;99.90;;;;;;5001345;28;20017;-74
2023/03/23 03:50:36;;;;;;;32.38;20.88;;;11.00;99.90;;;;;;5015353;28;20037;-74
2023/03/23 03:53:02;;;;;;;40.22;23.63;;;11.10;99.90;;;;;;5002956;28;20031;-74
2023/03/23 03:55:28;;;;;;;36.67;23.52;;;11.10;99.90;;;;;;5014600;28;20076;-73
2023/03/23 03:57:55;;;;;;;35.70;21.98;;;11.00;99.90;;;;;;5010977;28;20030;-74
2023/03/23 04:00:22;;;;;;;37.92;22.95;;;10.90;99.90;;;;;;5014471;28;20113;-74
2023/03/23 04:02:54;;;;;;;36.42;22.13;;;11.00;99.90;;;;;;5000090;28;20133;-74
2023/03/23 04:05:21;;;;;;;37.30;22.90;;;11.00;99.90;;;;;;5004090;28;20030;-74
2023/03/23 04:07:49;;;;;;;38.75;22.02;;;10.80;99.90;;;;;;4997570;28;20491;-74
2023/03/23 04:10:15;;;;;;;33.85;21.52;;;10.90;99.90;;;;;;5013471;28;20049;-74
2023/03/23 04:12:41;;;;;;;41.38;23.65;;;10.80;99.90;;;;;;5006970;28;20034;-74
2023/03/23 04:15:07;;;;;;;34.20;22.02;;;10.80;99.90;;;;;;5000060;28;20080;-74
2023/03/23 04:17:34;;;;;;;41.50;23.13;;;10.70;99.90;;;;;;5004322;28;20180;-74
2023/03/23 04:20:00;;;;;;;42.00;24.50;;;10.80;99.90;;;;;;4999504;28;20034;-74
2023/03/23 04:22:32;;;;;;;40.42;22.85;;;10.90;99.90;;;;;;4995882;28;20488;-74
2023/03/23 04:24:59;;;;;;;35.05;22.33;;;10.70;99.90;;;;;;5007401;28;20038;-74
2023/03/23 04:27:28;;;;;;;40.42;22.70;;;10.70;99.90;;;;;;5001344;28;20085;-74
2023/03/23 04:29:58;;;;;;;38.80;23.80;;;10.80;99.90;;;;;;4989035;28;20497;-74
2023/03/23 04:32:28;;;;;;;37.65;23.63;;;10.80;99.90;;;;;;4999438;28;20037;-74
2023/03/23 04:34:59;;;;;;;38.97;22.92;;;10.70;99.90;;;;;;5013015;28;20026;-74
2023/03/23 04:37:28;;;;;;;42.50;24.13;;;10.60;99.90;;;;;;4997132;28;20038;-74
2023/03/23 04:40:00;;;;;;;35.95;22.60;;;10.50;99.90;;;;;;5000558;28;20038;-74
2023/03/23 04:42:30;;;;;;;37.05;23.23;;;10.50;99.90;;;;;;5002338;28;20038;-74
2023/03/23 04:44:59;;;;;;;42.90;24.67;;;10.50;99.90;;;;;;4996835;28;20053;-74
2023/03/23 04:47:29;;;;;;;37.63;21.75;;;10.60;99.90;;;;;;4978812;28;20404;-74
2023/03/23 04:49:57;;;;;;;37.15;22.13;;;10.70;99.90;;;;;;5002138;28;20032;-74
2023/03/23 04:52:25;;;;;;;36.50;22.70;;;10.70;99.90;;;;;;4995376;28;20376;-74
2023/03/23 04:54:52;;;;;;;33.92;21.80;;;10.60;99.90;;;;;;4994410;28;20085;-74
2023/03/23 04:57:18;;;;;;;37.08;22.17;;;10.60;99.90;;;;;;4996522;28;20026;-75
2023/03/23 04:59:43;;;;;;;32.58;20.60;;;10.60;99.90;;;;;;5008457;28;20033;-75
2023/03/23 05:02:12;;;;;;;38.83;23.15;;;10.40;99.90;;;;;;5002187;28;20128;-74
2023/03/23 05:04:40;;;;;;;37.33;21.05;;;10.20;99.90;;;;;;4998548;28;20021;-75
2023/03/23 05:07:07;;;;;;;35.15;21.40;;;10.10;99.90;;;;;;4993362;28;20882;-74
2023/03/23 05:09:33;;;;;;;39.30;21.83;;;10.10;99.90;;;;;;5003472;28;20056;-74
2023/03/23 05:12:08;;;;;;;35.38;22.17;;;10.00;99.90;;;;;;5003173;28;20026;-74
2023/03/23 05:14:34;;;;;;;36.72;22.30;;;10.10;99.90;;;;;;5009332;28;20088;-74
2023/03/23 05:17:00;;;;;;;41.35;23.67;;;10.00;99.90;;;;;;4994845;28;20116;-73
2023/03/23 05:19:27;;;;;;;35.58;22.42;;;10.00;99.90;;;;;;5001115;28;20045;-74
2023/03/23 05:21:54;;;;;;;41.88;23.23;;;10.10;99.90;;;;;;4995927;28;20346;-73
2023/03/23 05:24:19;;;;;;;33.97;23.00;;;10.20;99.90;;;;;;5006396;28;20064;-74
2023/03/23 05:26:48;;;;;;;42.25;24.27;;;10.40;99.90;;;;;;4990102;28;20053;-73
2023/03/23 05:29:15;;;;;;;39.45;22.00;;;10.50;99.90;;;;;;4985326;28;20033;-73
2023/03/23 05:31:41;;;;;;;40.70;23.30;;;10.60;99.90;;;;;;5002831;28;20026;-73
2023/03/23 05:34:06;;;;;;;44.30;23.02;;;10.50;99.90;;;;;;4997564;28;20097;-73
2023/03/23 05:36:32;;;;;;;40.83;23.48;;;10.50;99.90;;;;;;5001231;28;20100;-74
2023/03/23 05:38:59;;;;;;;40.65;24.10;;;10.40;99.90;;;;;;5005247;28;20034;-74
2023/03/23 05:41:25;;;;;;;40.90;22.30;;;10.60;99.90;;;;;;5017176;28;20630;-73
2023/03/23 05:43:51;;;;;;;34.08;21.83;;;10.60;99.90;;;;;;5017697;28;20042;-73
2023/03/23 05:46:17;;;;;;;41.42;23.60;;;10.50;99.90;;;;;;5002814;28;20560;-73
2023/03/23 05:48:43;;;;;;;34.90;22.02;;;10.60;99.90;;;;;;4992429;28;20022;-73
2023/03/23 05:51:09;;;;;;;43.22;25.23;;;10.60;99.90;;;;;;4998981;28;20647;-74
2023/03/23 05:53:35;;;;;;;40.88;23.95;;;10.70;99.90;;;;;;4997523;28;20030;-74
2023/03/23 05:56:03;;;;;;;39.28;23.30;;;10.80;99.90;;;;;;5004518;28;20107;-73
2023/03/23 05:58:29;;;;;;;38.70;22.67;;;10.70;99.90;;;;;;4987667;28;20041;-73
2023/03/23 06:00:55;;;;;;;37.65;23.00;;;10.50;99.90;;;;;;5013877;28;20435;-73
2023/03/23 06:03:22;;;;;;;36.78;22.92;;;10.50;99.90;;;;;;4970741;28;20038;-74
2023/03/23 06:05:48;;;;;;;37.20;23.67;;;10.60;99.90;;;;;;5006145;28;20711;-73
2023/03/23 06:08:14;;;;;;;35.72;23.55;;;10.50;99.90;;;;;;5013510;28;20033;-73
2023/03/23 06:10:39;;;;;;;40.83;24.17;;;10.70;99.90;;;;;;5000339;28;20034;-76
2023/03/23 06:13:05;;;;;;;40.42;25.13;;;10.80;99.90;;;;;;5005062;28;20030;-75
2023/03/23 06:15:32;;;;;;;36.40;24.90;;;10.90;99.90;;;;;;5001306;28;20037;-75
2023/03/23 06:17:59;;;;;;;36.90;22.25;;;10.90;99.90;;;;;;4993307;28;20082;-74
2023/03/23 06:20:25;;;;;;;36.00;22.17;;;10.90;99.90;;;;;;4998262;28;20026;-76
2023/03/23 06:22:51;;;;;;;40.92;22.73;;;11.00;99.90;;;;;;4998015;28;20111;-73
2023/03/23 06:25:19;;;;;;;37.83;22.80;;;11.00;99.90;;;;;;5000236;28;20118;-76
2023/03/23 06:27:46;;;;;;;35.70;21.67;;;11.00;99.90;;;;;;4999938;28;20026;-76
2023/03/23 06:30:12;;;;;;;36.53;21.92;;;11.00;99.90;;;;;;5010778;28;20080;-76
2023/03/23 06:32:38;;;;;;;31.30;21.13;;;11.10;99.90;;;;;;4992705;28;20080;-75
2023/03/23 06:35:06;;;;;;;37.78;21.88;;;11.10;99.90;;;;;;4994799;28;20040;-75
2023/03/23 06:37:32;;;;;;;34.85;21.50;;;11.20;99.90;;;;;;4992095;28;20100;-76
2023/03/23 06:39:58;;;;;;;35.55;22.40;;;11.20;99.90;;;;;;4998098;28;20034;-76
2023/03/23 06:42:24;;;;;;;41.13;23.50;;;11.20;99.90;;;;;;4993992;28;20077;-75
2023/03/23 06:44:51;;;;;;;32.22;22.33;;;11.40;99.90;;;;;;4995429;28;20476;-75
2023/03/23 06:47:17;;;;;;;34.15;22.17;;;11.60;99.90;;;;;;4998972;28;20091;-74
2023/03/23 06:49:42;;;;;;;39.03;21.92;;;11.60;99.90;;;;;;4998729;28;20057;-75
2023/03/23 06:52:08;;;;;;;34.80;22.23;;;11.80;99.90;;;;;;5005678;28;20033;-76
2023/03/23 06:54:34;;;;;;;32.15;22.13;;;12.00;99.90;;;;;;5005428;28;20034;-75
2023/03/23 06:57:00;;;;;;;35.50;21.27;;;12.00;99.90;;;;;;4994273;28;20026;-75
2023/03/23 06:59:26;;;;;;;37.03;24.40;;;12.00;99.90;;;;;;4997067;28;20037;-76
2023/03/23 07:01:52;;;;;;;35.88;21.55;;;12.00;99.90;;;;;;4994737;28;20372;-76
2023/03/23 07:04:18;;;;;;;34.60;22.33;;;12.10;99.90;;;;;;4995079;28;20030;-76
2023/03/23 07:06:44;;;;;;;36.55;23.17;;;12.00;99.90;;;;;;5001413;28;20033;-76
2023/03/23 07:09:09;;;;;;;36.38;23.30;;;12.00;99.90;;;;;;4994395;28;20038;-75
2023/03/23 07:11:35;;;;;;;38.08;22.33;;;11.90;99.90;;;;;;5003415;28;20040;-74
2023/03/23 07:14:01;;;;;;;39.15;23.27;;;12.00;99.90;;;;;;5003147;28;21248;-75
2023/03/23 07:16:28;;;;;;;32.40;22.05;;;12.10;99.90;;;;;;4994434;28;20037;-75
2023/03/23 07:18:54;;;;;;;36.22;21.20;;;12.30;99.90;;;;;;4990351;28;20030;-75
2023/03/23 07:21:19;;;;;;;36.38;22.25;;;12.30;99.90;;;;;;5007849;28;20046;-75
2023/03/23 07:23:46;;;;;;;31.25;22.08;;;12.30;99.90;;;;;;4994355;28;20025;-75
2023/03/23 07:26:12;;;;;;;35.85;23.15;;;12.40;99.90;;;;;;5014286;28;20108;-76
2023/03/23 07:28:39;;;;;;;31.42;21.90;;;12.60;99.90;;;;;;5012829;28;20143;-76
2023/03/23 07:31:05;;;;;;;41.40;23.55;;;12.60;99.90;;;;;;4991255;28;20041;-76
2023/03/23 07:33:31;;;;;;;36.15;22.17;;;12.50;99.90;;;;;;5000327;28;20912;-75
2023/03/23 07:36:00;;;;;;;33.95;22.80;;;12.50;99.90;;;;;;4990680;28;20177;-77
2023/03/23 07:38:27;;;;;;;34.22;21.27;;;12.50;99.90;;;;;;4995924;28;20386;-74
2023/03/23 07:40:53;;;;;;;39.78;25.17;;;12.40;99.90;;;;;;5007125;28;20037;-76
2023/03/23 07:43:20;;;;;;;33.58;22.95;;;12.40;99.90;;;;;;5009213;28;20116;-76
2023/03/23 07:45:46;;;;;;;40.05;24.63;;;12.40;99.90;;;;;;5007737;28;20053;-75
2023/03/23 07:48:12;;;;;;;36.35;24.15;;;12.30;99.90;;;;;;4992574;28;20038;-76
2023/03/23 07:50:38;;;;;;;38.92;24.20;;;12.30;99.90;;;;;;5007616;28;20111;-77
2023/03/23 07:53:04;;;;;;;33.53;22.48;;;12.50;99.90;;;;;;5001651;28;20057;-76
2023/03/23 07:55:29;;;;;;;31.15;21.65;;;12.70;99.90;;;;;;4992805;28;20083;-76
2023/03/23 07:57:55;;;;;;;33.25;21.40;;;12.90;99.90;;;;;;5008721;28;20034;-76
2023/03/23 08:00:23;;;;;;;30.17;21.00;;;13.10;99.90;;;;;;5003208;28;20045;-76
2023/03/23 08:02:57;;;;;;;32.70;22.70;;;13.40;99.60;;;;;;5007653;28;20041;-75
2023/03/23 08:05:26;;;;;;;31.70;21.88;;;13.40;99.30;;;;;;4995234;28;20084;-76
2023/03/23 08:07:54;;;;;;;37.92;24.20;;;13.30;99.30;;;;;;4990688;28;20497;-76
2023/03/23 08:10:21;;;;;;;34.53;23.05;;;13.20;99.70;;;;;;5005585;28;20037;-76
2023/03/23 08:12:51;;;;;;;35.22;23.33;;;13.30;99.90;;;;;;4999487;28;20033;-76
2023/03/23 08:15:18;;;;;;;36.50;21.33;;;13.40;99.90;;;;;;5001360;28;23280;-76
2023/03/23 08:17:44;;;;;;;36.90;23.77;;;13.30;99.90;;;;;;4994963;28;20528;-76
2023/03/23 08:20:15;;;;;;;39.05;23.65;;;13.10;99.90;;;;;;5005838;28;20029;-77
2023/03/23 08:22:42;;;;;;;32.65;22.90;;;13.00;99.90;;;;;;5007328;28;20048;-76
2023/03/23 08:25:10;;;;;;;38.53;24.73;;;13.10;99.90;;;;;;5003162;28;20030;-76
2023/03/23 08:27:36;;;;;;;32.72;22.10;;;13.10;99.90;;;;;;5000984;28;20030;-76
2023/03/23 08:30:05;;;;;;;35.72;23.58;;;13.10;99.60;;;;;;4998487;28;20034;-75
2023/03/23 08:32:31;;;;;;;36.42;23.45;;;13.30;99.40;;;;;;5001091;28;20030;-76
2023/03/23 08:34:57;;;;;;;32.67;23.13;;;13.50;99.60;;;;;;4998156;28;20026;-75
2023/03/23 08:37:23;;;;;;;35.05;23.73;;;13.60;98.40;;;;;;4995085;28;20101;-75
2023/03/23 08:39:54;;;;;;;44.20;22.73;;;13.70;98.40;;;;;;4994086;28;20030;-75
2023/03/23 08:42:20;;;;;;;42.30;22.85;;;13.90;98.60;;;;;;5006001;28;20081;-76
2023/03/23 08:44:45;;;;;;;40.97;22.38;;;14.00;98.60;;;;;;5011165;28;20077;-75
2023/03/23 08:47:11;;;;;;;35.88;24.27;;;14.00;97.90;;;;;;4996038;28;20088;-75
2023/03/23 08:49:37;;;;;;;35.00;22.80;;;13.90;98.30;;;;;;4998750;28;20030;-75
2023/03/23 08:52:03;;;;;;;38.97;24.63;;;14.10;98.20;;;;;;5008123;28;20030;-75
2023/03/23 08:54:31;;;;;;;36.92;24.10;;;14.30;98.00;;;;;;4999411;28;20042;-75
2023/03/23 08:57:01;;;;;;;35.58;23.75;;;14.30;97.80;;;;;;5009650;28;20109;-75
2023/03/23 08:59:27;;;;;;;39.05;24.67;;;14.30;98.00;;;;;;5011761;28;20545;-75
2023/03/23 09:01:54;;;;;;;33.53;23.35;;;14.50;98.30;;;;;;5006392;28;20070;-75
2023/03/23 09:04:20;;;;;;;32.78;21.90;;;14.50;97.90;;;;;;5001301;28;20120;-74
2023/03/23 09:06:46;;;;;;;37.33;23.90;;;14.50;97.60;;;;;;5010431;28;20737;-76
2023/03/23 09:09:12;;;;;;;38.33;22.52;;;14.50;97.30;;;;;;5004951;28;20046;-75
2023/03/23 09:11:38;;;;;;;39.58;23.52;;;14.60;97.60;;;;;;5002630;28;20038;-76
2023/03/23 09:14:06;;;;;;;36.58;24.17;;;14.80;97.50;;;;;;5005970;28;20364;-75
2023/03/23 09:16:33;;;;;;;38.10;23.83;;;14.80;97.40;;;;;;5010007;28;20032;-75
2023/03/23 09:18:59;;;;;;;54.28;25.23;;;14.70;97.30;;;;;;4993762;28;20041;-75
2023/03/23 09:21:27;;;;;;;41.42;25.13;;;14.80;97.20;;;;;;5008926;28;20121;-75
2023/03/23 09:23:52;;;;;;;37.40;24.25;;;14.70;97.30;;;;;;4996935;28;20107;-77
2023/03/23 09:26:19;;;;;;;35.22;24.08;;;14.80;97.40;;;;;;5002749;28;20067;-74
2023/03/23 09:28:45;;;;;;;40.20;23.98;;;15.10;96.30;;;;;;5001174;28;20470;-74
2023/03/23 09:31:12;;;;;;;33.03;23.00;;;15.60;96.00;;;;;;4991456;28;20569;-76
2023/03/23 09:33:38;;;;;;;34.92;24.20;;;15.60;96.30;;;;;;5004086;28;20088;-75
2023/03/23 09:36:05;;;;;;;36.42;23.85;;;15.60;96.70;;;;;;5009877;28;20403;-75
2023/03/23 09:38:34;;;;;;;37.22;23.83;;;15.60;96.20;;;;;;5001344;28;20305;-76
2023/03/23 09:41:37;;;;;;;31.45;19.00;;;16.00;95.70;;;;;;4997844;28;20447;-78
2023/03/23 09:44:22;;;;;;;37.63;23.35;;;16.30;97.50;;;;;;5007273;28;20215;-76
2023/03/23 09:47:28;;;;;;;36.70;22.55;;;16.10;95.10;;;;;;5006576;28;20080;-75
2023/03/23 09:49:57;;;;;;;29.45;21.05;;;16.10;95.10;;;;;;4970196;28;20030;-76
2023/03/23 09:52:29;;;;;;;36.55;24.77;;;15.90;94.70;;;;;;5022889;28;20035;-74
2023/03/23 09:54:55;;;;;;;35.58;21.42;;;15.90;94.60;;;;;;5002526;28;20046;-76
2023/03/23 09:57:27;;;;;;;38.85;30.10;;;15.90;95.20;;;;;;5002493;28;20033;-75
2023/03/23 10:00:04;;;;;;;36.17;23.65;;;15.90;95.10;;;;;;4990897;28;20085;-76
2023/03/23 10:02:48;;;;;;;34.55;22.98;;;15.90;95.00;;;;;;4999240;28;20365;-75
2023/03/23 10:05:16;;;;;;;36.87;22.53;;;16.10;95.00;;;;;;4984870;28;20030;-75
2023/03/23 10:07:42;;;;;;;40.85;24.42;;;16.20;95.00;;;;;;4997755;28;20282;-76
2023/03/23 10:10:13;;;;;;;33.17;23.33;;;16.40;95.20;;;;;;4991903;28;20100;-78
2023/03/23 10:12:56;;;;;;;32.45;23.90;;;16.50;94.80;;;;;;5002571;28;20040;-75
2023/03/23 10:15:28;;;;;;;93.95;26.13;;;16.30;94.60;;;;;;4996131;28;20503;-76
2023/03/23 10:18:02;;;;;;;36.65;22.55;;;16.30;94.90;;;;;;5000705;28;20026;-75
2023/03/23 10:20:56;;;;;;;32.28;23.40;;;16.10;94.40;;;;;;4990837;28;20583;-76
2023/03/23 10:23:46;;;;;;;38.28;23.90;;;16.10;94.70;;;;;;4993380;28;20049;-75
2023/03/23 10:26:34;;;;;;;31.35;22.75;;;16.30;94.10;;;;;;4983855;28;20488;-75
2023/03/23 10:29:29;;;;;;;32.22;21.95;;;16.40;94.10;;;;;;4997259;28;20120;-74
2023/03/23 10:32:01;;;;;;;34.38;22.58;;;16.50;94.30;;;;;;5004101;28;20496;-75
2023/03/23 10:34:47;;;;;;;33.45;22.92;;;16.40;94.20;;;;;;5001643;28;20084;-75
2023/03/23 10:37:29;;;;;;;33.00;23.67;;;16.20;94.10;;;;;;4998347;28;20022;-74
2023/03/23 10:40:09;;;;;;;36.85;22.63;;;16.20;94.60;;;;;;5000994;28;20033;-74
2023/03/23 10:42:38;;;;;;;38.35;23.27;;;16.20;94.60;;;;;;4990167;28;20030;-79
2023/03/23 10:45:15;;;;;;;38.45;23.98;;;16.10;94.70;;;;;;4999477;28;20132;-76
2023/03/23 10:48:03;;;;;;;37.00;25.08;;;16.00;95.00;;;;;;5006120;28;20109;-74
2023/03/23 10:50:34;;;;;;;40.78;25.25;;;16.10;94.90;;;;;;4998260;28;20034;-75
2023/03/23 10:53:03;;;;;;;38.17;24.48;;;16.10;94.90;;;;;;5001198;28;20045;-74
2023/03/23 10:55:38;;;;;;;34.95;23.90;;;16.30;94.50;;;;;;5006097;28;20083;-75
2023/03/23 10:58:06;;;;;;;34.33;24.08;;;16.30;94.60;;;;;;5003463;28;20029;-76
2023/03/23 11:00:33;;;;;;;32.65;22.98;;;16.30;94.60;;;;;;4997908;28;20022;-75
2023/03/23 11:03:03;;;;;;;36.97;24.30;;;16.20;94.30;;;;;;5003848;28;20041;-77
2023/03/23 11:05:43;;;;;;;40.60;23.80;;;16.20;94.30;;;;;;5010885;28;20789;-74
2023/03/23 11:08:25;;;;;;;32.70;22.90;;;16.60;95.20;;;;;;5005289;28;20042;-77
2023/03/23 11:10:54;;;;;;;33.80;23.15;;;16.70;94.20;;;;;;4997867;28;20080;-74
2023/03/23 11:13:25;;;;;;;36.55;23.23;;;16.90;94.50;;;;;;4995933;28;20393;-76
2023/03/23 11:15:50;;;;;;;34.33;25.40;;;17.10;94.70;;;;;;4999674;28;20026;-76
2023/03/23 11:18:22;;;;;;;37.13;23.50;;;17.30;93.90;;;;;;4996813;28;20030;-75
2023/03/23 11:20:56;;;;;;;34.75;23.45;;;17.60;93.40;;;;;;4996830;28;20376;-76
2023/03/23 11:23:26;;;;;;;40.67;25.60;;;17.70;93.60;;;;;;4997060;28;20400;-76
2023/03/23 11:26:11;;;;;;;33.47;23.30;;;18.10;93.40;;;;;;4987912;28;20164;-77
2023/03/23 11:28:46;;;;;;;36.47;23.30;;;18.00;92.70;;;;;;5000835;28;20533;-75
2023/03/23 11:31:12;;;;;;;37.67;24.35;;;17.90;93.00;;;;;;4993107;28;20110;-75
2023/03/23 11:34:04;;;;;;;38.67;25.65;;;17.90;93.20;;;;;;5000444;28;21126;-75
2023/03/23 11:37:05;;;;;;;35.83;24.08;;;17.90;92.60;;;;;;5014064;28;20030;-75
2023/03/23 11:39:48;;;;;;;31.98;21.25;;;18.00;92.30;;;;;;4995947;28;20026;-75
2023/03/23 11:42:20;;;;;;;31.23;21.27;;;18.20;92.10;;;;;;5013710;28;20100;-75
2023/03/23 11:44:46;;;;;;;28.15;20.85;;;18.30;91.60;;;;;;5008235;28;20108;-76
2023/03/23 11:47:27;;;;;;;34.60;23.27;;;18.10;91.70;;;;;;5009488;28;20029;-74
2023/03/23 11:49:55;;;;;;;32.75;22.23;;;18.50;91.90;;;;;;4991545;28;20033;-74
2023/03/23 11:52:26;;;;;;;33.72;22.50;;;18.80;92.30;;;;;;5007189;28;20042;-74
2023/03/23 11:55:08;;;;;;;35.85;22.05;;;18.60;91.40;;;;;;4998651;28;20687;-74
2023/03/23 11:57:34;;;;;;;30.23;22.40;;;18.60;91.50;;;;;;4991024;28;20030;-74
2023/03/23 12:00:02;;;;;;;32.45;22.15;;;18.60;91.20;;;;;;5007817;28;20080;-75
2023/03/23 12:03:04;;;;;;;37.05;23.73;;;18.90;91.70;;;;;;5001505;28;20129;-76
2023/03/23 12:05:29;;;;;;;30.50;20.92;;;18.80;91.00;;;;;;4988901;28;20042;-77
2023/03/23 12:08:07;;;;;;;32.05;22.30;;;19.00;91.00;;;;;;5001685;28;20032;-77
2023/03/23 12:10:48;;;;;;;31.85;22.30;;;19.10;91.30;;;;;;4996282;28;20476;-77
2023/03/23 12:13:25;;;;;;;39.88;23.48;;;19.30;91.60;;;;;;4996041;28;20113;-76
2023/03/23 12:16:02;;;;;;;40.05;23.55;;;19.20;91.20;;;;;;4996658;28;20499;-76
2023/03/23 12:18:48;;;;;;;38.17;23.08;;;19.10;91.20;;;;;;5007190;28;20034;-74
2023/03/23 12:21:19;;;;;;;32.40;22.50;;;18.90;92.00;;;;;;4999962;28;20077;-76
2023/03/23 12:23:45;;;;;;;30.40;21.35;;;19.10;91.20;;;;;;4996027;28;20070;-75
2023/03/23 12:26:18;;;;;;;34.78;22.65;;;19.10;91.70;;;;;;5001189;28;20748;-76
2023/03/23 12:29:02;;;;;;;32.75;22.60;;;19.00;91.00;;;;;;4992941;28;20085;-76
2023/03/23 12:31:34;;;;;;;;;;;18.90;91.20;;;;;;5021950;28;20495;-75
2023/03/23 12:34:15;;;;;;;32.80;21.77;;;18.90;91.10;;;;;;5000969;28;19913;-76
2023/03/23 12:36:55;;;;;;;27.80;19.80;;;19.30;91.30;;;;;;5002153;28;20040;-75
2023/03/23 12:39:38;;;;;;;28.35;18.35;;;19.70;91.10;;;;;;5008802;28;20041;-75
2023/03/23 12:42:10;;;;;;;29.83;20.15;;;19.90;90.70;;;;;;4996688;28;20046;-76
2023/03/23 12:44:45;;;;;;;26.98;17.55;;;19.90;90.50;;;;;;5004532;28;20042;-76